Time,TemperatureF,DewpointF,PressureIn,WindDirection,WindDirectionDegrees,WindSpeedMPH,WindSpeedGustMPH,Humidity,HourlyPrecipIn,Conditions,Clouds,dailyrainin,SolarRadiationWatts/m^2,SoftwareType,DateUTC
2013-12-18 00:08:00,43.3,39.0,30.05,North,10,0.0,0.0,84,0.00,,,0.00,0,weatherlink.com 1.10,2013-12-18 08:08:00,
2013-12-18 00:23:00,42.9,39.0,30.05,North,10,0.0,0.0,85,0.00,,,0.00,0,weatherlink.com 1.10,2013-12-18 08:23:00,
2013-12-18 00:38:00,43.1,39.0,30.04,North,10,0.0,0.0,84,0.00,,,0.00,0,weatherlink.com 1.10,2013-12-18 08:38:00,
2013-12-18 00:53:00,42.8,39.0,30.05,North,10,0.0,0.0,85,0.00,,,0.00,0,weatherlink.com 1.10,2013-12-18 08:53:00,
2013-12-18 01:08:00,42.6,38.0,30.04,North,10,0.0,0.0,84,0.00,,,0.00,0,weatherlink.com 1.10,2013-12-18 09:08:00,
2013-12-18 01:23:00,41.8,38.0,30.04,North,10,0.0,0.0,85,0.00,,,0.00,0,weatherlink.com 1.10,2013-12-18 09:23:00,
2013-12-18 01:38:00,42.0,38.0,30.04,North,10,0.0,0.0,86,0.00,,,0.00,0,weatherlink.com 1.10,2013-12-18 09:38:00,
2013-12-18 01:53:00,41.9,38.0,30.04,North,10,0.0,0.0,86,0.00,,,0.00,0,weatherlink.com 1.10,2013-12-18 09:53:00,
2013-12-18 02:08:00,42.8,39.0,30.04,ESE,119,0.0,0.0,85,0.00,,,0.00,0,weatherlink.com 1.10,2013-12-18 10:08:00,
2013-12-18 02:23:00,43.2,38.0,30.04,ESE,115,0.0,0.0,83,0.00,,,0.00,0,weatherlink.com 1.10,2013-12-18 10:23:00,
2013-12-18 02:38:00,43.4,39.0,30.03,ESE,115,0.0,0.0,83,0.00,,,0.00,0,weatherlink.com 1.10,2013-12-18 10:38:00,
2013-12-18 02:53:00,43.4,39.0,30.02,ESE,115,0.0,0.0,83,0.00,,,0.00,0,weatherlink.com 1.10,2013-12-18 10:53:00,
2013-12-18 03:08:00,43.3,38.0,30.02,ESE,115,0.0,0.0,82,0.00,,,0.00,0,weatherlink.com 1.10,2013-12-18 11:08:00,
2013-12-18 03:23:00,43.1,38.0,30.02,ESE,115,0.0,0.0,83,0.00,,,0.00,0,weatherlink.com 1.10,2013-12-18 11:23:00,
2013-12-18 03:38:00,43.1,38.0,30.01,ESE,115,0.0,0.0,83,0.00,,,0.00,0,weatherlink.com 1.10,2013-12-18 11:38:00,
2013-12-18 03:53:00,43.0,38.0,30.02,ESE,116,0.0,0.0,83,0.00,,,0.00,0,weatherlink.com 1.10,2013-12-18 11:53:00,
2013-12-18 04:08:00,42.9,38.0,30.02,South,180,0.0,4.0,83,0.00,,,0.00,0,weatherlink.com 1.10,2013-12-18 12:08:00,
2013-12-18 04:23:00,42.7,38.0,30.01,South,180,0.0,0.0,84,0.00,,,0.00,0,weatherlink.com 1.10,2013-12-18 12:23:00,
2013-12-18 04:38:00,42.5,38.0,30.00,South,180,0.0,0.0,84,0.00,,,0.00,0,weatherlink.com 1.10,2013-12-18 12:38:00,
2013-12-18 04:53:00,42.4,38.0,29.98,South,180,0.0,0.0,84,0.00,,,0.00,0,weatherlink.com 1.10,2013-12-18 12:53:00,
2013-12-18 05:08:00,42.0,38.0,29.98,South,179,0.0,4.0,84,0.00,,,0.00,0,weatherlink.com 1.10,2013-12-18 13:08:00,
2013-12-18 05:23:00,41.9,37.0,29.98,South,178,0.0,0.0,84,0.00,,,0.00,0,weatherlink.com 1.10,2013-12-18 13:23:00,
2013-12-18 05:39:00,42.2,38.0,29.98,South,176,0.0,0.0,84,0.00,,,0.00,0,weatherlink.com 1.10,2013-12-18 13:39:00,
2013-12-18 05:54:00,42.0,37.0,29.97,SSE,167,0.0,0.0,83,0.00,,,0.00,0,weatherlink.com 1.10,2013-12-18 13:54:00,
2013-12-18 06:09:00,41.8,37.0,29.96,ENE,57,0.0,0.0,83,0.00,,,0.00,0,weatherlink.com 1.10,2013-12-18 14:09:00,
2013-12-18 06:24:00,41.4,37.0,29.97,South,169,0.0,0.0,83,0.00,,,0.00,0,weatherlink.com 1.10,2013-12-18 14:24:00,
2013-12-18 06:39:00,41.1,37.0,29.96,South,169,0.0,0.0,84,0.00,,,0.00,0,weatherlink.com 1.10,2013-12-18 14:39:00,
2013-12-18 06:54:00,41.0,37.0,29.95,South,169,0.0,0.0,85,0.00,,,0.00,0,weatherlink.com 1.10,2013-12-18 14:54:00,
2013-12-18 07:09:00,40.9,37.0,29.95,South,169,0.0,0.0,85,0.00,,,0.00,0,weatherlink.com 1.10,2013-12-18 15:09:00,
2013-12-18 07:24:00,40.7,37.0,29.95,South,169,0.0,0.0,85,0.00,,,0.00,0,weatherlink.com 1.10,2013-12-18 15:24:00,
2013-12-18 07:39:00,40.7,37.0,29.96,South,169,0.0,0.0,86,0.00,,,0.00,11,weatherlink.com 1.10,2013-12-18 15:39:00,
2013-12-18 07:54:00,40.7,37.0,29.97,South,169,0.0,0.0,85,0.00,,,0.00,26,weatherlink.com 1.10,2013-12-18 15:54:00,
2013-12-18 08:09:00,41.1,37.0,29.97,South,186,0.0,3.0,86,0.00,,,0.00,83,weatherlink.com 1.10,2013-12-18 16:09:00,
2013-12-18 08:24:00,42.6,38.0,29.98,South,190,0.0,4.0,83,0.00,,,0.00,155,weatherlink.com 1.10,2013-12-18 16:24:00,
2013-12-18 08:39:00,43.9,39.0,29.97,SE,145,0.0,0.0,82,0.00,,,0.00,104,weatherlink.com 1.10,2013-12-18 16:39:00,
2013-12-18 08:54:00,44.8,38.0,29.97,SE,145,0.0,0.0,78,0.00,,,0.00,46,weatherlink.com 1.10,2013-12-18 16:54:00,
2013-12-18 09:09:00,48.3,40.0,29.96,SE,145,0.0,0.0,72,0.00,,,0.00,297,weatherlink.com 1.10,2013-12-18 17:09:00,
2013-12-18 09:24:00,48.9,40.0,29.97,NNE,20,0.0,1.0,72,0.00,,,0.00,330,weatherlink.com 1.10,2013-12-18 17:24:00,
2013-12-18 09:39:00,51.0,41.0,29.97,NNE,20,0.0,0.0,68,0.00,,,0.00,367,weatherlink.com 1.10,2013-12-18 17:39:00,
2013-12-18 09:54:00,52.8,39.0,29.97,NNE,20,0.0,0.0,61,0.00,,,0.00,404,weatherlink.com 1.10,2013-12-18 17:54:00,
2013-12-18 10:09:00,55.1,39.0,29.98,NNE,20,0.0,0.0,55,0.00,,,0.00,489,weatherlink.com 1.10,2013-12-18 18:09:00,
2013-12-18 10:24:00,57.7,38.0,29.97,NNE,13,0.0,4.0,49,0.00,,,0.00,257,weatherlink.com 1.10,2013-12-18 18:24:00,
2013-12-18 10:39:00,59.7,38.0,29.96,North,5,3.0,6.0,45,0.00,,,0.00,343,weatherlink.com 1.10,2013-12-18 18:39:00,
2013-12-18 10:54:00,60.0,37.0,29.95,North,5,2.0,7.0,43,0.00,,,0.00,424,weatherlink.com 1.10,2013-12-18 18:54:00,
2013-12-18 11:09:00,60.8,37.0,29.95,ENE,66,0.0,4.0,42,0.00,,,0.00,420,weatherlink.com 1.10,2013-12-18 19:09:00,
2013-12-18 11:25:00,61.0,38.0,29.94,NE,38,0.0,0.0,42,0.00,,,0.00,190,weatherlink.com 1.10,2013-12-18 19:25:00,
2013-12-18 11:40:00,60.2,37.0,29.92,NE,38,0.0,0.0,42,0.00,,,0.00,114,weatherlink.com 1.10,2013-12-18 19:40:00,
2013-12-18 11:55:00,57.8,41.0,29.92,West,259,1.0,10.0,53,0.00,,,0.00,107,weatherlink.com 1.10,2013-12-18 19:55:00,
2013-12-18 12:10:00,57.4,40.0,29.90,NW,315,0.0,4.0,53,0.00,,,0.00,144,weatherlink.com 1.10,2013-12-18 20:10:00,
2013-12-18 12:25:00,57.6,40.0,29.89,WNW,291,0.0,0.0,53,0.00,,,0.00,281,weatherlink.com 1.10,2013-12-18 20:25:00,
2013-12-18 12:40:00,60.5,41.0,29.87,WNW,296,7.0,9.0,49,0.00,,,0.00,250,weatherlink.com 1.10,2013-12-18 20:40:00,
2013-12-18 12:55:00,58.7,41.0,29.87,West,261,1.0,9.0,52,0.00,,,0.00,102,weatherlink.com 1.10,2013-12-18 20:55:00,
2013-12-18 13:10:00,57.5,41.0,29.86,WSW,238,2.0,11.0,54,0.00,,,0.00,144,weatherlink.com 1.10,2013-12-18 21:10:00,
2013-12-18 13:25:00,57.1,42.0,29.85,WNW,302,0.0,8.0,58,0.00,,,0.00,116,weatherlink.com 1.10,2013-12-18 21:25:00,
2013-12-18 13:40:00,58.1,44.0,29.84,West,281,3.0,8.0,59,0.00,,,0.00,522,weatherlink.com 1.10,2013-12-18 21:40:00,
2013-12-18 13:55:00,60.0,44.0,29.84,NW,323,1.0,10.0,56,0.00,,,0.00,232,weatherlink.com 1.10,2013-12-18 21:55:00,
2013-12-18 14:10:00,60.8,43.0,29.84,WSW,254,0.0,6.0,53,0.00,,,0.00,207,weatherlink.com 1.10,2013-12-18 22:10:00,
2013-12-18 14:25:00,60.8,44.0,29.84,SSW,202,5.0,8.0,54,0.00,,,0.00,410,weatherlink.com 1.10,2013-12-18 22:25:00,
2013-12-18 14:40:00,59.5,44.0,29.84,SSW,209,3.0,10.0,56,0.00,,,0.00,130,weatherlink.com 1.10,2013-12-18 22:40:00,
2013-12-18 14:55:00,58.2,45.0,29.83,West,259,0.0,8.0,63,0.00,,,0.00,130,weatherlink.com 1.10,2013-12-18 22:55:00,
2013-12-18 15:10:00,57.7,44.0,29.83,West,270,3.0,8.0,60,0.00,,,0.00,83,weatherlink.com 1.10,2013-12-18 23:10:00,
2013-12-18 15:25:00,56.4,44.0,29.83,SW,232,1.0,8.0,64,0.00,,,0.00,95,weatherlink.com 1.10,2013-12-18 23:25:00,
2013-12-18 15:40:00,55.7,45.0,29.82,WNW,284,1.0,12.0,67,0.00,,,0.00,74,weatherlink.com 1.10,2013-12-18 23:40:00,
2013-12-18 15:55:00,54.5,45.0,29.83,SW,235,1.0,10.0,70,0.00,,,0.00,26,weatherlink.com 1.10,2013-12-18 23:55:00,
2013-12-18 16:10:00,53.2,45.0,29.83,SW,219,0.0,7.0,73,0.00,,,0.00,23,weatherlink.com 1.10,2013-12-19 00:10:00,
2013-12-18 16:25:00,52.3,45.0,29.83,WSW,257,7.0,12.0,76,0.00,,,0.00,14,weatherlink.com 1.10,2013-12-19 00:25:00,
2013-12-18 16:40:00,50.8,46.0,29.83,West,275,4.0,12.0,82,0.00,,,0.00,9,weatherlink.com 1.10,2013-12-19 00:40:00,
2013-12-18 16:55:00,49.8,45.0,29.83,WNW,282,12.0,15.0,84,0.00,,,0.00,0,weatherlink.com 1.10,2013-12-19 00:55:00,
2013-12-18 17:10:00,49.3,45.0,29.83,West,262,0.0,12.0,85,0.00,,,0.00,0,weatherlink.com 1.10,2013-12-19 01:10:00,
2013-12-18 17:25:00,49.2,45.0,29.82,NW,319,6.0,12.0,86,0.00,,,0.00,0,weatherlink.com 1.10,2013-12-19 01:25:00,
2013-12-18 17:40:00,49.4,45.0,29.83,WSW,257,0.0,12.0,86,0.00,,,0.00,0,weatherlink.com 1.10,2013-12-19 01:40:00,
2013-12-18 17:55:00,49.7,46.0,29.83,WSW,251,3.0,11.0,86,0.00,,,0.00,0,weatherlink.com 1.10,2013-12-19 01:55:00,
2013-12-18 18:10:00,50.0,46.0,29.83,West,262,0.0,11.0,86,0.00,,,0.00,0,weatherlink.com 1.10,2013-12-19 02:10:00,
2013-12-18 18:25:00,50.1,46.0,29.83,West,281,1.0,7.0,86,0.00,,,0.00,0,weatherlink.com 1.10,2013-12-19 02:25:00,
2013-12-18 18:40:00,50.4,46.0,29.83,WSW,244,5.0,14.0,86,0.00,,,0.00,0,weatherlink.com 1.10,2013-12-19 02:40:00,
2013-12-18 18:55:00,50.4,47.0,29.82,South,188,2.0,12.0,87,0.00,,,0.00,0,weatherlink.com 1.10,2013-12-19 02:55:00,
2013-12-18 19:10:00,50.5,47.0,29.83,West,263,2.0,10.0,87,0.00,,,0.00,0,weatherlink.com 1.10,2013-12-19 03:10:00,
2013-12-18 19:25:00,50.5,47.0,29.83,West,259,4.0,12.0,87,0.00,,,0.00,0,weatherlink.com 1.10,2013-12-19 03:25:00,
2013-12-18 19:40:00,50.4,47.0,29.82,WSW,244,0.0,8.0,87,0.00,,,0.00,0,weatherlink.com 1.10,2013-12-19 03:40:00,
2013-12-18 19:55:00,50.3,47.0,29.82,West,261,0.0,9.0,88,0.00,,,0.00,0,weatherlink.com 1.10,2013-12-19 03:55:00,
2013-12-18 20:10:00,50.4,47.0,29.82,West,264,2.0,8.0,88,0.00,,,0.00,0,weatherlink.com 1.10,2013-12-19 04:10:00,
2013-12-18 20:25:00,50.3,47.0,29.81,West,259,1.0,8.0,88,0.00,,,0.00,0,weatherlink.com 1.10,2013-12-19 04:25:00,
2013-12-18 20:40:00,49.8,47.0,29.81,West,278,0.0,0.0,89,0.00,,,0.00,0,weatherlink.com 1.10,2013-12-19 04:40:00,
2013-12-18 20:55:00,49.6,47.0,29.80,SSW,197,0.0,0.0,89,0.00,,,0.00,0,weatherlink.com 1.10,2013-12-19 04:55:00,
2013-12-18 21:10:00,48.9,46.0,29.81,SSW,197,0.0,0.0,89,0.00,,,0.00,0,weatherlink.com 1.10,2013-12-19 05:10:00,
2013-12-18 21:25:00,48.6,46.0,29.80,WSW,241,0.0,7.0,90,0.00,,,0.00,0,weatherlink.com 1.10,2013-12-19 05:25:00,
2013-12-18 21:40:00,48.8,46.0,29.80,West,260,0.0,7.0,91,0.00,,,0.00,0,weatherlink.com 1.10,2013-12-19 05:40:00,
2013-12-18 21:55:00,48.6,46.0,29.80,WSW,242,0.0,7.0,91,0.00,,,0.00,0,weatherlink.com 1.10,2013-12-19 05:55:00,
2013-12-18 22:10:00,48.4,46.0,29.80,WSW,249,0.0,8.0,91,0.00,,,0.00,0,weatherlink.com 1.10,2013-12-19 06:10:00,
2013-12-18 22:25:00,48.2,46.0,29.79,SW,236,0.0,7.0,92,0.00,,,0.00,0,weatherlink.com 1.10,2013-12-19 06:25:00,
2013-12-18 22:40:00,47.8,46.0,29.79,West,267,0.0,4.0,92,0.00,,,0.00,0,weatherlink.com 1.10,2013-12-19 06:40:00,
2013-12-18 22:55:00,47.9,46.0,29.79,NW,307,0.0,12.0,92,0.00,,,0.00,0,weatherlink.com 1.10,2013-12-19 06:55:00,
2013-12-18 23:10:00,47.9,46.0,29.79,NW,307,5.0,9.0,91,0.00,,,0.00,0,weatherlink.com 1.10,2013-12-19 07:10:00,
2013-12-18 23:26:00,47.8,45.0,29.78,West,259,1.0,11.0,91,0.00,,,0.00,0,weatherlink.com 1.10,2013-12-19 07:26:00,
2013-12-18 23:41:00,47.6,45.0,29.78,WNW,297,5.0,9.0,91,0.00,,,0.00,0,weatherlink.com 1.10,2013-12-19 07:41:00,
2013-12-18 23:56:00,47.3,45.0,29.78,West,272,0.0,5.0,91,0.00,,,0.00,0,weatherlink.com 1.10,2013-12-19 07:56:00,